sensor_id;sensor_type;location;lat;lon;timestamp;P1;durP1;ratioP1;P2;durP2;ratioP2
20348;SDS011;10332;50.208;18.988;2023-06-22T00:01:28;16.65;;;10.82;;
20348;SDS011;10332;50.208;18.988;2023-06-22T00:03:55;12.77;;;8.85;;
20348;SDS011;10332;50.208;18.988;2023-06-22T00:06:23;13.43;;;8.25;;
20348;SDS011;10332;50.208;18.988;2023-06-22T00:08:50;11.55;;;8.45;;
20348;SDS011;10332;50.208;18.988;2023-06-22T00:11:18;11.40;;;7.95;;
20348;SDS011;10332;50.208;18.988;2023-06-22T00:13:47;11.38;;;7.68;;
20348;SDS011;10332;50.208;18.988;2023-06-22T00:16:15;13.43;;;8.35;;
20348;SDS011;10332;50.208;18.988;2023-06-22T00:18:43;10.60;;;7.45;;
20348;SDS011;10332;50.208;18.988;2023-06-22T00:21:13;14.55;;;8.05;;
20348;SDS011;10332;50.208;18.988;2023-06-22T00:23:41;13.13;;;8.40;;
20348;SDS011;10332;50.208;18.988;2023-06-22T00:26:09;11.10;;;6.72;;
20348;SDS011;10332;50.208;18.988;2023-06-22T00:28:38;11.60;;;7.05;;
20348;SDS011;10332;50.208;18.988;2023-06-22T00:31:05;13.13;;;7.20;;
20348;SDS011;10332;50.208;18.988;2023-06-22T00:33:33;15.15;;;7.30;;
20348;SDS011;10332;50.208;18.988;2023-06-22T00:36:00;10.45;;;6.22;;
20348;SDS011;10332;50.208;18.988;2023-06-22T00:38:32;9.68;;;6.35;;
20348;SDS011;10332;50.208;18.988;2023-06-22T00:41:00;12.25;;;6.60;;
20348;SDS011;10332;50.208;18.988;2023-06-22T00:43:29;11.07;;;7.00;;
20348;SDS011;10332;50.208;18.988;2023-06-22T00:45:56;10.45;;;6.68;;
20348;SDS011;10332;50.208;18.988;2023-06-22T00:48:24;10.80;;;6.45;;
20348;SDS011;10332;50.208;18.988;2023-06-22T00:50:52;12.48;;;6.97;;
20348;SDS011;10332;50.208;18.988;2023-06-22T00:53:22;10.40;;;6.40;;
20348;SDS011;10332;50.208;18.988;2023-06-22T00:55:50;10.88;;;5.90;;
20348;SDS011;10332;50.208;18.988;2023-06-22T00:58:22;9.38;;;5.95;;
20348;SDS011;10332;50.208;18.988;2023-06-22T01:00:51;12.85;;;5.95;;
20348;SDS011;10332;50.208;18.988;2023-06-22T01:03:19;11.00;;;6.35;;
20348;SDS011;10332;50.208;18.988;2023-06-22T01:05:47;10.77;;;6.30;;
20348;SDS011;10332;50.208;18.988;2023-06-22T01:08:25;9.32;;;5.72;;
20348;SDS011;10332;50.208;18.988;2023-06-22T01:11:28;10.38;;;6.65;;
20348;SDS011;10332;50.208;18.988;2023-06-22T01:16:46;9.27;;;6.03;;
20348;SDS011;10332;50.208;18.988;2023-06-22T01:22:15;10.05;;;5.68;;
20348;SDS011;10332;50.208;18.988;2023-06-22T01:24:51;9.82;;;5.82;;
20348;SDS011;10332;50.208;18.988;2023-06-22T01:30:46;8.77;;;5.70;;
20348;SDS011;10332;50.208;18.988;2023-06-22T01:33:30;8.95;;;5.72;;
20348;SDS011;10332;50.208;18.988;2023-06-22T01:36:03;12.13;;;6.53;;
20348;SDS011;10332;50.208;18.988;2023-06-22T01:38:33;10.35;;;5.70;;
20348;SDS011;10332;50.208;18.988;2023-06-22T01:41:02;7.53;;;4.97;;
20348;SDS011;10332;50.208;18.988;2023-06-22T01:43:31;8.48;;;5.30;;
20348;SDS011;10332;50.208;18.988;2023-06-22T01:46:00;9.52;;;5.25;;
20348;SDS011;10332;50.208;18.988;2023-06-22T01:48:29;8.35;;;5.55;;
20348;SDS011;10332;50.208;18.988;2023-06-22T01:50:58;8.05;;;5.10;;
20348;SDS011;10332;50.208;18.988;2023-06-22T01:53:26;10.80;;;6.22;;
20348;SDS011;10332;50.208;18.988;2023-06-22T01:55:53;9.45;;;5.45;;
20348;SDS011;10332;50.208;18.988;2023-06-22T01:58:25;6.97;;;5.07;;
20348;SDS011;10332;50.208;18.988;2023-06-22T02:03:44;5.72;;;4.38;;
20348;SDS011;10332;50.208;18.988;2023-06-22T02:06:25;5.55;;;4.60;;
20348;SDS011;10332;50.208;18.988;2023-06-22T02:09:02;7.07;;;5.47;;
20348;SDS011;10332;50.208;18.988;2023-06-22T02:11:37;4.63;;;3.70;;
20348;SDS011;10332;50.208;18.988;2023-06-22T02:14:07;5.05;;;3.97;;
20348;SDS011;10332;50.208;18.988;2023-06-22T02:16:35;6.28;;;4.38;;
20348;SDS011;10332;50.208;18.988;2023-06-22T02:19:04;7.78;;;4.70;;
20348;SDS011;10332;50.208;18.988;2023-06-22T02:21:33;8.38;;;5.70;;
20348;SDS011;10332;50.208;18.988;2023-06-22T02:24:00;9.07;;;5.80;;
20348;SDS011;10332;50.208;18.988;2023-06-22T02:26:28;6.85;;;4.90;;
20348;SDS011;10332;50.208;18.988;2023-06-22T02:28:57;10.18;;;5.88;;
20348;SDS011;10332;50.208;18.988;2023-06-22T02:31:24;14.32;;;6.53;;
20348;SDS011;10332;50.208;18.988;2023-06-22T02:34:00;8.85;;;5.47;;
20348;SDS011;10332;50.208;18.988;2023-06-22T02:36:27;8.68;;;5.10;;
20348;SDS011;10332;50.208;18.988;2023-06-22T02:38:57;9.23;;;5.40;;
20348;SDS011;10332;50.208;18.988;2023-06-22T02:41:28;10.38;;;5.75;;
20348;SDS011;10332;50.208;18.988;2023-06-22T02:43:55;8.93;;;5.88;;
20348;SDS011;10332;50.208;18.988;2023-06-22T02:46:23;13.50;;;6.13;;
20348;SDS011;10332;50.208;18.988;2023-06-22T02:48:50;8.70;;;5.43;;
20348;SDS011;10332;50.208;18.988;2023-06-22T02:51:18;8.00;;;5.15;;
20348;SDS011;10332;50.208;18.988;2023-06-22T02:53:47;9.32;;;5.70;;
20348;SDS011;10332;50.208;18.988;2023-06-22T02:56:14;7.75;;;5.40;;
20348;SDS011;10332;50.208;18.988;2023-06-22T02:58:42;7.30;;;5.22;;
20348;SDS011;10332;50.208;18.988;2023-06-22T03:01:10;9.13;;;5.55;;
20348;SDS011;10332;50.208;18.988;2023-06-22T03:03:39;8.10;;;5.97;;
20348;SDS011;10332;50.208;18.988;2023-06-22T03:06:07;8.80;;;5.22;;
20348;SDS011;10332;50.208;18.988;2023-06-22T03:08:41;8.95;;;5.70;;
20348;SDS011;10332;50.208;18.988;2023-06-22T03:11:08;11.65;;;5.85;;
20348;SDS011;10332;50.208;18.988;2023-06-22T03:13:36;9.98;;;5.60;;
20348;SDS011;10332;50.208;18.988;2023-06-22T03:16:03;8.27;;;5.50;;
20348;SDS011;10332;50.208;18.988;2023-06-22T03:18:31;6.85;;;5.13;;
20348;SDS011;10332;50.208;18.988;2023-06-22T03:20:58;9.50;;;5.03;;
20348;SDS011;10332;50.208;18.988;2023-06-22T03:23:26;7.47;;;5.03;;
20348;SDS011;10332;50.208;18.988;2023-06-22T03:25:54;8.38;;;5.07;;
20348;SDS011;10332;50.208;18.988;2023-06-22T03:28:22;9.75;;;5.40;;
20348;SDS011;10332;50.208;18.988;2023-06-22T03:30:50;8.40;;;5.40;;
20348;SDS011;10332;50.208;18.988;2023-06-22T03:33:17;10.48;;;5.93;;
20348;SDS011;10332;50.208;18.988;2023-06-22T03:35:44;7.18;;;5.05;;
20348;SDS011;10332;50.208;18.988;2023-06-22T03:38:12;8.02;;;5.03;;
20348;SDS011;10332;50.208;18.988;2023-06-22T03:40:39;8.90;;;5.22;;
20348;SDS011;10332;50.208;18.988;2023-06-22T03:43:06;8.65;;;5.10;;
20348;SDS011;10332;50.208;18.988;2023-06-22T03:45:34;7.10;;;5.10;;
20348;SDS011;10332;50.208;18.988;2023-06-22T03:48:02;8.80;;;6.60;;
20348;SDS011;10332;50.208;18.988;2023-06-22T03:50:30;16.27;;;10.15;;
20348;SDS011;10332;50.208;18.988;2023-06-22T03:52:57;11.52;;;8.25;;
20348;SDS011;10332;50.208;18.988;2023-06-22T03:55:25;8.52;;;6.20;;
20348;SDS011;10332;50.208;18.988;2023-06-22T03:57:52;7.63;;;5.68;;
20348;SDS011;10332;50.208;18.988;2023-06-22T04:00:23;6.15;;;4.70;;
20348;SDS011;10332;50.208;18.988;2023-06-22T04:02:50;10.77;;;6.50;;
20348;SDS011;10332;50.208;18.988;2023-06-22T04:05:18;10.27;;;6.70;;
20348;SDS011;10332;50.208;18.988;2023-06-22T04:07:45;11.05;;;7.43;;
20348;SDS011;10332;50.208;18.988;2023-06-22T04:10:13;13.05;;;7.43;;
20348;SDS011;10332;50.208;18.988;2023-06-22T04:12:43;8.90;;;6.45;;
20348;SDS011;10332;50.208;18.988;2023-06-22T04:15:11;12.60;;;7.03;;
20348;SDS011;10332;50.208;18.988;2023-06-22T04:17:38;10.65;;;6.43;;
20348;SDS011;10332;50.208;18.988;2023-06-22T04:20:06;6.18;;;5.25;;
20348;SDS011;10332;50.208;18.988;2023-06-22T04:22:34;7.22;;;5.32;;
20348;SDS011;10332;50.208;18.988;2023-06-22T04:25:02;12.65;;;8.07;;
20348;SDS011;10332;50.208;18.988;2023-06-22T04:27:30;12.98;;;8.90;;
20348;SDS011;10332;50.208;18.988;2023-06-22T04:29:58;16.25;;;9.98;;
20348;SDS011;10332;50.208;18.988;2023-06-22T04:32:27;14.13;;;9.88;;
20348;SDS011;10332;50.208;18.988;2023-06-22T04:34:54;15.20;;;9.63;;
20348;SDS011;10332;50.208;18.988;2023-06-22T04:37:21;13.27;;;8.57;;
20348;SDS011;10332;50.208;18.988;2023-06-22T04:39:50;11.60;;;7.78;;
20348;SDS011;10332;50.208;18.988;2023-06-22T04:42:17;13.52;;;9.18;;
20348;SDS011;10332;50.208;18.988;2023-06-22T04:44:45;8.13;;;6.38;;
20348;SDS011;10332;50.208;18.988;2023-06-22T04:47:12;9.63;;;7.45;;
20348;SDS011;10332;50.208;18.988;2023-06-22T04:49:40;11.27;;;8.15;;
20348;SDS011;10332;50.208;18.988;2023-06-22T04:52:10;13.25;;;9.45;;
20348;SDS011;10332;50.208;18.988;2023-06-22T04:54:40;11.50;;;8.82;;
20348;SDS011;10332;50.208;18.988;2023-06-22T04:57:14;14.52;;;9.43;;
20348;SDS011;10332;50.208;18.988;2023-06-22T04:59:42;11.95;;;8.60;;
20348;SDS011;10332;50.208;18.988;2023-06-22T05:02:10;10.02;;;7.57;;
20348;SDS011;10332;50.208;18.988;2023-06-22T05:04:38;11.30;;;7.88;;
20348;SDS011;10332;50.208;18.988;2023-06-22T05:07:06;10.30;;;7.35;;
20348;SDS011;10332;50.208;18.988;2023-06-22T05:09:34;9.57;;;7.45;;
20348;SDS011;10332;50.208;18.988;2023-06-22T05:12:01;8.48;;;7.22;;
20348;SDS011;10332;50.208;18.988;2023-06-22T05:14:29;6.50;;;5.88;;
20348;SDS011;10332;50.208;18.988;2023-06-22T05:16:57;9.50;;;7.32;;
20348;SDS011;10332;50.208;18.988;2023-06-22T05:19:25;7.75;;;6.55;;
20348;SDS011;10332;50.208;18.988;2023-06-22T05:22:00;10.73;;;8.05;;
20348;SDS011;10332;50.208;18.988;2023-06-22T05:24:28;8.23;;;6.18;;
20348;SDS011;10332;50.208;18.988;2023-06-22T05:26:55;6.72;;;5.93;;
20348;SDS011;10332;50.208;18.988;2023-06-22T05:29:23;7.28;;;6.20;;
20348;SDS011;10332;50.208;18.988;2023-06-22T05:31:50;9.13;;;7.30;;
20348;SDS011;10332;50.208;18.988;2023-06-22T05:34:18;13.95;;;10.98;;
20348;SDS011;10332;50.208;18.988;2023-06-22T05:36:45;10.95;;;9.30;;
20348;SDS011;10332;50.208;18.988;2023-06-22T05:39:13;12.27;;;10.32;;
20348;SDS011;10332;50.208;18.988;2023-06-22T05:41:42;11.20;;;9.98;;
20348;SDS011;10332;50.208;18.988;2023-06-22T05:44:10;10.32;;;8.75;;
20348;SDS011;10332;50.208;18.988;2023-06-22T05:46:40;15.13;;;12.20;;
20348;SDS011;10332;50.208;18.988;2023-06-22T05:49:11;17.75;;;13.93;;
20348;SDS011;10332;50.208;18.988;2023-06-22T05:51:39;17.23;;;13.88;;
20348;SDS011;10332;50.208;18.988;2023-06-22T05:54:07;16.75;;;14.35;;
20348;SDS011;10332;50.208;18.988;2023-06-22T05:56:35;13.02;;;11.73;;
20348;SDS011;10332;50.208;18.988;2023-06-22T05:59:03;13.77;;;12.27;;
20348;SDS011;10332;50.208;18.988;2023-06-22T06:01:31;12.13;;;10.80;;
20348;SDS011;10332;50.208;18.988;2023-06-22T06:04:02;11.10;;;10.00;;
20348;SDS011;10332;50.208;18.988;2023-06-22T06:06:31;11.18;;;10.07;;
20348;SDS011;10332;50.208;18.988;2023-06-22T06:08:58;13.43;;;12.00;;
20348;SDS011;10332;50.208;18.988;2023-06-22T06:11:26;18.77;;;15.13;;
20348;SDS011;10332;50.208;18.988;2023-06-22T06:13:54;16.70;;;14.90;;
20348;SDS011;10332;50.208;18.988;2023-06-22T06:16:22;15.88;;;13.45;;
20348;SDS011;10332;50.208;18.988;2023-06-22T06:18:50;16.35;;;14.65;;
20348;SDS011;10332;50.208;18.988;2023-06-22T06:21:17;18.05;;;15.93;;
20348;SDS011;10332;50.208;18.988;2023-06-22T06:23:45;15.65;;;14.05;;
20348;SDS011;10332;50.208;18.988;2023-06-22T06:26:13;19.60;;;16.92;;
20348;SDS011;10332;50.208;18.988;2023-06-22T06:28:43;16.02;;;14.35;;
20348;SDS011;10332;50.208;18.988;2023-06-22T06:31:11;20.63;;;18.08;;
20348;SDS011;10332;50.208;18.988;2023-06-22T06:33:39;20.75;;;17.67;;
20348;SDS011;10332;50.208;18.988;2023-06-22T06:36:06;19.17;;;15.80;;
20348;SDS011;10332;50.208;18.988;2023-06-22T06:38:35;15.73;;;14.13;;
20348;SDS011;10332;50.208;18.988;2023-06-22T06:41:02;15.27;;;13.18;;
20348;SDS011;10332;50.208;18.988;2023-06-22T06:43:30;23.23;;;17.92;;
20348;SDS011;10332;50.208;18.988;2023-06-22T06:45:57;17.98;;;14.20;;
20348;SDS011;10332;50.208;18.988;2023-06-22T06:48:25;21.23;;;17.85;;
20348;SDS011;10332;50.208;18.988;2023-06-22T06:50:52;17.45;;;15.50;;
20348;SDS011;10332;50.208;18.988;2023-06-22T06:53:19;17.30;;;15.50;;
20348;SDS011;10332;50.208;18.988;2023-06-22T06:55:47;15.98;;;13.88;;
20348;SDS011;10332;50.208;18.988;2023-06-22T06:58:14;19.27;;;16.45;;
20348;SDS011;10332;50.208;18.988;2023-06-22T07:00:42;17.65;;;15.40;;
20348;SDS011;10332;50.208;18.988;2023-06-22T07:03:10;22.10;;;17.65;;
20348;SDS011;10332;50.208;18.988;2023-06-22T07:05:38;17.65;;;15.68;;
20348;SDS011;10332;50.208;18.988;2023-06-22T07:08:05;17.00;;;15.15;;
20348;SDS011;10332;50.208;18.988;2023-06-22T07:10:32;18.23;;;16.38;;
20348;SDS011;10332;50.208;18.988;2023-06-22T07:13:00;20.80;;;18.60;;
20348;SDS011;10332;50.208;18.988;2023-06-22T07:15:28;17.00;;;15.23;;
20348;SDS011;10332;50.208;18.988;2023-06-22T07:17:55;18.48;;;16.10;;
20348;SDS011;10332;50.208;18.988;2023-06-22T07:20:23;21.08;;;18.83;;
20348;SDS011;10332;50.208;18.988;2023-06-22T07:22:58;15.82;;;14.05;;
20348;SDS011;10332;50.208;18.988;2023-06-22T07:25:26;14.25;;;12.35;;
20348;SDS011;10332;50.208;18.988;2023-06-22T07:28:01;14.43;;;12.52;;
20348;SDS011;10332;50.208;18.988;2023-06-22T07:30:32;12.80;;;11.50;;
20348;SDS011;10332;50.208;18.988;2023-06-22T07:33:01;12.75;;;11.55;;
20348;SDS011;10332;50.208;18.988;2023-06-22T07:35:31;13.68;;;12.27;;
20348;SDS011;10332;50.208;18.988;2023-06-22T07:37:59;14.63;;;12.38;;
20348;SDS011;10332;50.208;18.988;2023-06-22T07:40:31;16.55;;;14.85;;
20348;SDS011;10332;50.208;18.988;2023-06-22T07:43:00;20.08;;;17.98;;
20348;SDS011;10332;50.208;18.988;2023-06-22T07:45:28;17.17;;;15.38;;
20348;SDS011;10332;50.208;18.988;2023-06-22T07:47:56;20.88;;;16.08;;
20348;SDS011;10332;50.208;18.988;2023-06-22T07:50:24;18.38;;;15.40;;
20348;SDS011;10332;50.208;18.988;2023-06-22T07:52:51;16.08;;;14.18;;
20348;SDS011;10332;50.208;18.988;2023-06-22T07:55:19;14.10;;;12.70;;
20348;SDS011;10332;50.208;18.988;2023-06-22T07:57:47;13.80;;;12.13;;
20348;SDS011;10332;50.208;18.988;2023-06-22T08:00:15;17.05;;;12.20;;
20348;SDS011;10332;50.208;18.988;2023-06-22T08:02:45;12.73;;;11.07;;
20348;SDS011;10332;50.208;18.988;2023-06-22T08:05:14;11.60;;;10.40;;
20348;SDS011;10332;50.208;18.988;2023-06-22T08:07:45;12.02;;;10.82;;
20348;SDS011;10332;50.208;18.988;2023-06-22T08:10:14;12.70;;;11.40;;
20348;SDS011;10332;50.208;18.988;2023-06-22T08:12:43;10.77;;;9.68;;
20348;SDS011;10332;50.208;18.988;2023-06-22T08:15:10;13.02;;;10.30;;
20348;SDS011;10332;50.208;18.988;2023-06-22T08:17:43;15.13;;;10.55;;
20348;SDS011;10332;50.208;18.988;2023-06-22T08:20:13;12.07;;;10.77;;
20348;SDS011;10332;50.208;18.988;2023-06-22T08:22:41;10.82;;;9.70;;
20348;SDS011;10332;50.208;18.988;2023-06-22T08:25:10;11.43;;;9.50;;
20348;SDS011;10332;50.208;18.988;2023-06-22T08:27:40;10.32;;;9.32;;
20348;SDS011;10332;50.208;18.988;2023-06-22T08:30:11;9.38;;;8.25;;
20348;SDS011;10332;50.208;18.988;2023-06-22T08:32:38;10.40;;;9.40;;
20348;SDS011;10332;50.208;18.988;2023-06-22T08:35:06;10.52;;;9.38;;
20348;SDS011;10332;50.208;18.988;2023-06-22T08:37:37;9.90;;;8.90;;
20348;SDS011;10332;50.208;18.988;2023-06-22T08:40:07;9.25;;;8.32;;
20348;SDS011;10332;50.208;18.988;2023-06-22T08:42:37;9.93;;;8.77;;
20348;SDS011;10332;50.208;18.988;2023-06-22T08:45:08;10.27;;;9.27;;
20348;SDS011;10332;50.208;18.988;2023-06-22T08:47:37;9.55;;;8.57;;
20348;SDS011;10332;50.208;18.988;2023-06-22T08:50:05;9.55;;;8.43;;
20348;SDS011;10332;50.208;18.988;2023-06-22T08:52:35;10.45;;;9.48;;
20348;SDS011;10332;50.208;18.988;2023-06-22T08:55:04;9.95;;;8.95;;
20348;SDS011;10332;50.208;18.988;2023-06-22T08:57:33;9.63;;;8.63;;
20348;SDS011;10332;50.208;18.988;2023-06-22T09:00:00;9.50;;;8.52;;
20348;SDS011;10332;50.208;18.988;2023-06-22T09:02:28;9.60;;;8.60;;
20348;SDS011;10332;50.208;18.988;2023-06-22T09:04:58;9.45;;;8.52;;
20348;SDS011;10332;50.208;18.988;2023-06-22T09:07:31;9.27;;;8.38;;
20348;SDS011;10332;50.208;18.988;2023-06-22T09:09:58;9.50;;;8.55;;
20348;SDS011;10332;50.208;18.988;2023-06-22T09:12:30;10.10;;;9.10;;
20348;SDS011;10332;50.208;18.988;2023-06-22T09:14:59;11.35;;;9.50;;
20348;SDS011;10332;50.208;18.988;2023-06-22T09:17:28;8.98;;;8.13;;
20348;SDS011;10332;50.208;18.988;2023-06-22T09:19:55;8.52;;;7.72;;
20348;SDS011;10332;50.208;18.988;2023-06-22T09:22:23;7.47;;;6.72;;
20348;SDS011;10332;50.208;18.988;2023-06-22T09:24:55;7.97;;;7.20;;
20348;SDS011;10332;50.208;18.988;2023-06-22T09:27:23;7.22;;;6.60;;
20348;SDS011;10332;50.208;18.988;2023-06-22T09:29:50;8.30;;;7.57;;
20348;SDS011;10332;50.208;18.988;2023-06-22T09:32:18;7.82;;;7.13;;
20348;SDS011;10332;50.208;18.988;2023-06-22T09:34:45;7.90;;;7.20;;
20348;SDS011;10332;50.208;18.988;2023-06-22T09:37:12;7.78;;;6.95;;
20348;SDS011;10332;50.208;18.988;2023-06-22T09:39:40;8.00;;;7.30;;
20348;SDS011;10332;50.208;18.988;2023-06-22T09:42:08;9.57;;;7.75;;
20348;SDS011;10332;50.208;18.988;2023-06-22T09:44:35;8.30;;;7.32;;
20348;SDS011;10332;50.208;18.988;2023-06-22T09:47:03;7.70;;;6.90;;
20348;SDS011;10332;50.208;18.988;2023-06-22T09:49:31;8.10;;;7.30;;
20348;SDS011;10332;50.208;18.988;2023-06-22T09:52:14;7.38;;;6.68;;
20348;SDS011;10332;50.208;18.988;2023-06-22T09:54:42;8.02;;;7.28;;
20348;SDS011;10332;50.208;18.988;2023-06-22T09:57:10;7.05;;;6.43;;
20348;SDS011;10332;50.208;18.988;2023-06-22T09:59:37;7.10;;;6.40;;
20348;SDS011;10332;50.208;18.988;2023-06-22T10:02:06;7.63;;;6.80;;
20348;SDS011;10332;50.208;18.988;2023-06-22T10:04:34;7.72;;;6.90;;
20348;SDS011;10332;50.208;18.988;2023-06-22T10:07:03;7.30;;;6.60;;
20348;SDS011;10332;50.208;18.988;2023-06-22T10:09:31;7.43;;;6.63;;
20348;SDS011;10332;50.208;18.988;2023-06-22T10:11:58;6.63;;;6.05;;
20348;SDS011;10332;50.208;18.988;2023-06-22T10:14:28;7.55;;;6.80;;
20348;SDS011;10332;50.208;18.988;2023-06-22T10:16:56;7.07;;;6.38;;
20348;SDS011;10332;50.208;18.988;2023-06-22T10:19:25;7.15;;;6.45;;
20348;SDS011;10332;50.208;18.988;2023-06-22T10:21:53;7.15;;;6.20;;
20348;SDS011;10332;50.208;18.988;2023-06-22T10:24:22;8.00;;;7.18;;
20348;SDS011;10332;50.208;18.988;2023-06-22T10:26:49;11.32;;;7.05;;
20348;SDS011;10332;50.208;18.988;2023-06-22T10:29:16;7.50;;;6.80;;
20348;SDS011;10332;50.208;18.988;2023-06-22T10:31:44;6.80;;;6.10;;
20348;SDS011;10332;50.208;18.988;2023-06-22T10:34:11;7.25;;;6.53;;
20348;SDS011;10332;50.208;18.988;2023-06-22T10:36:39;6.63;;;5.93;;
20348;SDS011;10332;50.208;18.988;2023-06-22T10:39:07;6.78;;;6.18;;
20348;SDS011;10332;50.208;18.988;2023-06-22T10:41:35;7.25;;;6.57;;
20348;SDS011;10332;50.208;18.988;2023-06-22T10:44:02;6.70;;;6.07;;
20348;SDS011;10332;50.208;18.988;2023-06-22T10:46:30;7.05;;;6.35;;
20348;SDS011;10332;50.208;18.988;2023-06-22T10:48:57;7.07;;;6.38;;
20348;SDS011;10332;50.208;18.988;2023-06-22T10:51:25;6.05;;;5.55;;
20348;SDS011;10332;50.208;18.988;2023-06-22T10:53:55;7.05;;;6.32;;
20348;SDS011;10332;50.208;18.988;2023-06-22T10:56:22;13.43;;;8.07;;
20348;SDS011;10332;50.208;18.988;2023-06-22T10:58:50;12.77;;;7.47;;
20348;SDS011;10332;50.208;18.988;2023-06-22T11:01:17;50.28;;;19.00;;
20348;SDS011;10332;50.208;18.988;2023-06-22T11:03:51;29.20;;;12.13;;
20348;SDS011;10332;50.208;18.988;2023-06-22T11:06:19;25.42;;;11.38;;
20348;SDS011;10332;50.208;18.988;2023-06-22T11:08:47;25.55;;;12.00;;
20348;SDS011;10332;50.208;18.988;2023-06-22T11:11:32;7.03;;;6.00;;
20348;SDS011;10332;50.208;18.988;2023-06-22T11:13:59;8.70;;;6.32;;
20348;SDS011;10332;50.208;18.988;2023-06-22T11:16:27;9.18;;;6.60;;
20348;SDS011;10332;50.208;18.988;2023-06-22T11:18:56;7.85;;;7.05;;
20348;SDS011;10332;50.208;18.988;2023-06-22T11:21:23;10.00;;;6.97;;
20348;SDS011;10332;50.208;18.988;2023-06-22T11:23:50;7.85;;;6.18;;
20348;SDS011;10332;50.208;18.988;2023-06-22T11:26:18;6.95;;;6.25;;
20348;SDS011;10332;50.208;18.988;2023-06-22T11:28:47;7.10;;;6.40;;
20348;SDS011;10332;50.208;18.988;2023-06-22T11:31:15;7.50;;;6.13;;
20348;SDS011;10332;50.208;18.988;2023-06-22T11:33:52;9.05;;;6.75;;
20348;SDS011;10332;50.208;18.988;2023-06-22T11:36:19;7.68;;;6.45;;
20348;SDS011;10332;50.208;18.988;2023-06-22T11:38:47;6.47;;;5.88;;
20348;SDS011;10332;50.208;18.988;2023-06-22T11:41:15;6.93;;;6.00;;
20348;SDS011;10332;50.208;18.988;2023-06-22T11:43:42;6.78;;;6.18;;
20348;SDS011;10332;50.208;18.988;2023-06-22T11:46:09;7.32;;;6.63;;
20348;SDS011;10332;50.208;18.988;2023-06-22T11:48:37;6.80;;;6.10;;
20348;SDS011;10332;50.208;18.988;2023-06-22T11:51:05;7.28;;;6.57;;
20348;SDS011;10332;50.208;18.988;2023-06-22T11:53:35;7.10;;;6.45;;
20348;SDS011;10332;50.208;18.988;2023-06-22T11:56:02;6.60;;;6.00;;
20348;SDS011;10332;50.208;18.988;2023-06-22T11:58:30;6.40;;;5.80;;
20348;SDS011;10332;50.208;18.988;2023-06-22T12:00:57;6.93;;;6.13;;
20348;SDS011;10332;50.208;18.988;2023-06-22T12:03:25;7.18;;;6.47;;
20348;SDS011;10332;50.208;18.988;2023-06-22T12:05:52;7.30;;;6.40;;
20348;SDS011;10332;50.208;18.988;2023-06-22T12:08:20;7.43;;;6.28;;
20348;SDS011;10332;50.208;18.988;2023-06-22T12:10:49;6.38;;;5.80;;
20348;SDS011;10332;50.208;18.988;2023-06-22T12:13:17;8.75;;;6.50;;
20348;SDS011;10332;50.208;18.988;2023-06-22T12:15:44;7.80;;;7.10;;
20348;SDS011;10332;50.208;18.988;2023-06-22T12:18:12;7.60;;;6.30;;
20348;SDS011;10332;50.208;18.988;2023-06-22T12:20:42;7.15;;;6.50;;
20348;SDS011;10332;50.208;18.988;2023-06-22T12:23:09;6.80;;;6.10;;
20348;SDS011;10332;50.208;18.988;2023-06-22T12:25:37;7.43;;;6.65;;
20348;SDS011;10332;50.208;18.988;2023-06-22T12:28:04;6.25;;;5.65;;
20348;SDS011;10332;50.208;18.988;2023-06-22T12:30:34;7.28;;;6.60;;
20348;SDS011;10332;50.208;18.988;2023-06-22T12:33:02;7.35;;;6.65;;
20348;SDS011;10332;50.208;18.988;2023-06-22T12:35:29;6.80;;;6.20;;
20348;SDS011;10332;50.208;18.988;2023-06-22T12:37:57;7.45;;;6.75;;
20348;SDS011;10332;50.208;18.988;2023-06-22T12:40:25;6.85;;;6.15;;
20348;SDS011;10332;50.208;18.988;2023-06-22T12:42:52;7.40;;;6.70;;
20348;SDS011;10332;50.208;18.988;2023-06-22T12:45:20;6.70;;;6.10;;
20348;SDS011;10332;50.208;18.988;2023-06-22T12:47:48;6.75;;;6.15;;
20348;SDS011;10332;50.208;18.988;2023-06-22T12:50:17;7.93;;;7.13;;
20348;SDS011;10332;50.208;18.988;2023-06-22T12:52:44;6.60;;;5.97;;
20348;SDS011;10332;50.208;18.988;2023-06-22T12:55:12;6.75;;;6.15;;
20348;SDS011;10332;50.208;18.988;2023-06-22T12:57:39;6.50;;;5.90;;
20348;SDS011;10332;50.208;18.988;2023-06-22T13:00:07;6.43;;;5.90;;
20348;SDS011;10332;50.208;18.988;2023-06-22T13:02:36;8.25;;;7.30;;
20348;SDS011;10332;50.208;18.988;2023-06-22T13:05:04;7.60;;;6.82;;
20348;SDS011;10332;50.208;18.988;2023-06-22T13:07:32;7.85;;;7.15;;
20348;SDS011;10332;50.208;18.988;2023-06-22T13:10:00;7.60;;;6.63;;
20348;SDS011;10332;50.208;18.988;2023-06-22T13:12:28;8.75;;;7.03;;
20348;SDS011;10332;50.208;18.988;2023-06-22T13:14:56;6.82;;;6.22;;
20348;SDS011;10332;50.208;18.988;2023-06-22T13:17:23;7.13;;;6.43;;
20348;SDS011;10332;50.208;18.988;2023-06-22T13:19:51;7.00;;;6.40;;
20348;SDS011;10332;50.208;18.988;2023-06-22T13:22:34;7.03;;;6.32;;
20348;SDS011;10332;50.208;18.988;2023-06-22T13:25:07;7.25;;;6.47;;
20348;SDS011;10332;50.208;18.988;2023-06-22T13:27:39;6.80;;;6.10;;
20348;SDS011;10332;50.208;18.988;2023-06-22T13:30:08;6.18;;;5.60;;
20348;SDS011;10332;50.208;18.988;2023-06-22T13:32:40;8.25;;;6.63;;
20348;SDS011;10332;50.208;18.988;2023-06-22T13:35:10;8.77;;;6.28;;
20348;SDS011;10332;50.208;18.988;2023-06-22T13:37:38;6.65;;;6.05;;
20348;SDS011;10332;50.208;18.988;2023-06-22T13:40:06;6.40;;;5.80;;
20348;SDS011;10332;50.208;18.988;2023-06-22T13:42:35;7.53;;;6.40;;
20348;SDS011;10332;50.208;18.988;2023-06-22T13:45:03;6.75;;;6.15;;
20348;SDS011;10332;50.208;18.988;2023-06-22T13:47:33;7.53;;;6.85;;
20348;SDS011;10332;50.208;18.988;2023-06-22T13:50:01;7.30;;;6.68;;
20348;SDS011;10332;50.208;18.988;2023-06-22T13:52:28;8.35;;;7.55;;
20348;SDS011;10332;50.208;18.988;2023-06-22T13:54:56;8.20;;;7.40;;
20348;SDS011;10332;50.208;18.988;2023-06-22T13:57:23;7.60;;;6.90;;
20348;SDS011;10332;50.208;18.988;2023-06-22T13:59:51;9.13;;;8.27;;
20348;SDS011;10332;50.208;18.988;2023-06-22T14:02:19;8.52;;;7.63;;
20348;SDS011;10332;50.208;18.988;2023-06-22T14:04:46;8.10;;;7.30;;
20348;SDS011;10332;50.208;18.988;2023-06-22T14:07:14;7.22;;;6.50;;
20348;SDS011;10332;50.208;18.988;2023-06-22T14:09:42;7.60;;;6.90;;
20348;SDS011;10332;50.208;18.988;2023-06-22T14:12:09;7.40;;;6.70;;
20348;SDS011;10332;50.208;18.988;2023-06-22T14:14:37;6.32;;;5.72;;
20348;SDS011;10332;50.208;18.988;2023-06-22T14:17:05;8.10;;;6.75;;
20348;SDS011;10332;50.208;18.988;2023-06-22T14:19:32;10.38;;;9.38;;
20348;SDS011;10332;50.208;18.988;2023-06-22T14:22:00;15.30;;;13.80;;
20348;SDS011;10332;50.208;18.988;2023-06-22T14:24:28;9.52;;;8.65;;
20348;SDS011;10332;50.208;18.988;2023-06-22T14:26:56;9.77;;;8.77;;
20348;SDS011;10332;50.208;18.988;2023-06-22T14:29:25;9.30;;;8.50;;
20348;SDS011;10332;50.208;18.988;2023-06-22T14:31:52;8.07;;;7.30;;
20348;SDS011;10332;50.208;18.988;2023-06-22T14:34:20;7.90;;;6.90;;
20348;SDS011;10332;50.208;18.988;2023-06-22T14:36:47;8.77;;;7.97;;
20348;SDS011;10332;50.208;18.988;2023-06-22T14:39:15;14.10;;;10.05;;
20348;SDS011;10332;50.208;18.988;2023-06-22T14:41:42;13.70;;;9.45;;
20348;SDS011;10332;50.208;18.988;2023-06-22T14:44:10;12.90;;;10.23;;
20348;SDS011;10332;50.208;18.988;2023-06-22T14:46:37;9.30;;;8.32;;